createdAt,value
2023-04-15T00:01:55.037Z,96847.97
2023-04-15T00:04:24.389Z,96855.44
2023-04-15T00:06:54.809Z,96857.13
2023-04-15T00:09:24.068Z,96854.06
2023-04-15T00:11:53.693Z,96853.25
2023-04-15T00:14:22.818Z,96856.47
2023-04-15T00:16:56.293Z,96850.09
2023-04-15T00:19:26.880Z,96856.38
2023-04-15T00:21:55.894Z,96857.13
2023-04-15T00:24:25.181Z,96851.44
2023-04-15T00:26:54.657Z,96853.13
2023-04-15T00:29:24.099Z,96849.06
2023-04-15T00:31:53.451Z,96854.34
2023-04-15T00:34:22.630Z,96852.81
2023-04-15T00:36:55.252Z,96857.97
2023-04-15T00:39:24.369Z,96852.22
2023-04-15T00:41:54.240Z,96857.75
2023-04-15T00:44:23.852Z,96860.28
2023-04-15T00:46:54.087Z,96857.97
2023-04-15T00:49:24.131Z,96850.22
2023-04-15T00:51:54.996Z,96856.34
2023-04-15T00:54:24.117Z,96857.06
2023-04-15T00:56:53.233Z,96847.19
2023-04-15T00:59:23.226Z,96855.53
2023-04-15T01:01:52.827Z,96856.34
2023-04-15T01:04:22.531Z,96847.69
2023-04-15T01:06:52.131Z,96855.97
2023-04-15T01:09:22.720Z,96859.50
2023-04-15T01:11:53.829Z,96852.28
2023-04-15T01:14:23.058Z,96849.53
2023-04-15T01:16:52.395Z,96855.59
2023-04-15T01:19:21.578Z,96852.75
2023-04-15T01:21:51.933Z,96861.97
2023-04-15T01:24:22.474Z,96861.13
2023-04-15T01:26:52.890Z,96857.50
2023-04-15T01:29:22.459Z,96855.53
2023-04-15T01:31:53.864Z,96859.56
2023-04-15T01:34:23.351Z,96856.38
2023-04-15T01:36:56.213Z,96855.59
2023-04-15T01:39:25.322Z,96859.91
2023-04-15T01:42:00.440Z,96857.97
2023-04-15T01:44:29.605Z,96857.25
2023-04-15T01:46:58.774Z,96857.59
2023-04-15T01:49:29.180Z,96859.19
2023-04-15T01:51:58.247Z,96861.25
2023-04-15T01:54:27.425Z,96864.75
2023-04-15T01:56:56.800Z,96872.84
2023-04-15T01:59:28.233Z,96864.53
2023-04-15T02:01:57.527Z,96870.91
2023-04-15T02:04:26.765Z,96864.53
2023-04-15T02:06:55.851Z,96873.00
2023-04-15T02:09:25.020Z,96872.63
2023-04-15T02:11:54.724Z,96875.06
2023-04-15T02:14:24.210Z,96872.75
2023-04-15T02:16:54.672Z,96876.75
2023-04-15T02:19:23.816Z,96879.53
2023-04-15T02:21:52.856Z,96883.03
2023-04-15T02:24:22.196Z,96871.06
2023-04-15T02:26:51.262Z,96875.78
2023-04-15T02:29:20.305Z,96871.06
2023-04-15T02:31:49.522Z,96878.22
2023-04-15T02:34:20.223Z,96881.38
2023-04-15T02:36:49.838Z,96878.94
2023-04-15T02:39:19.188Z,96882.09
2023-04-15T02:41:52.017Z,96890.44
2023-04-15T02:44:22.170Z,96890.53
2023-04-15T02:46:54.815Z,96877.84
2023-04-15T02:49:25.931Z,96877.88
2023-04-15T02:51:55.478Z,96891.41
2023-04-15T02:54:25.252Z,96890.94
2023-04-15T02:56:55.370Z,96888.63
2023-04-15T02:59:24.863Z,96885.50
2023-04-15T03:01:54.105Z,96890.19
2023-04-15T03:04:24.691Z,96895.31
2023-04-15T03:06:53.759Z,96891.78
2023-04-15T03:09:22.891Z,96887.78
2023-04-15T03:11:53.669Z,96896.16
2023-04-15T03:14:23.400Z,96893.38
2023-04-15T03:16:52.518Z,96890.94
2023-04-15T03:19:26.217Z,96892.16
2023-04-15T03:21:55.440Z,96888.53
2023-04-15T03:24:24.870Z,96884.56
2023-04-15T03:26:55.234Z,96889.72
2023-04-15T03:29:25.956Z,96890.91
2023-04-15T03:31:54.976Z,96888.91
2023-04-15T03:34:25.824Z,96880.53
2023-04-15T03:36:54.990Z,96883.31
2023-04-15T03:39:24.050Z,96882.09
2023-04-15T03:41:53.106Z,96890.84
2023-04-15T03:44:22.082Z,96890.09
2023-04-15T03:46:51.233Z,96888.91
2023-04-15T03:49:20.791Z,96897.25
2023-04-15T03:51:51.292Z,96902.09
2023-04-15T03:54:20.909Z,96892.16
2023-04-15T03:56:49.941Z,96898.47
2023-04-15T03:59:18.951Z,96900.28
2023-04-15T04:01:48.157Z,96899.16
2023-04-15T04:04:17.261Z,96900.00
2023-04-15T04:06:46.937Z,96904.00
2023-04-15T04:09:17.479Z,96898.03
2023-04-15T04:11:46.782Z,96897.59
2023-04-15T04:14:15.975Z,96898.31
2023-04-15T04:16:45.399Z,96901.06
2023-04-15T04:19:14.812Z,96900.66
2023-04-15T04:21:43.877Z,96906.22
2023-04-15T04:24:13.587Z,96909.38
2023-04-15T04:26:44.034Z,96910.94
2023-04-15T04:29:13.124Z,96904.53
2023-04-15T04:31:42.257Z,96916.44
2023-04-15T04:34:11.603Z,96912.44
2023-04-15T04:36:40.617Z,96916.53
2023-04-15T04:39:09.668Z,96925.69
2023-04-15T04:41:38.783Z,96922.78
2023-04-15T04:44:09.164Z,96923.13
2023-04-15T04:46:38.289Z,96928.28
2023-04-15T04:49:07.306Z,96926.66
2023-04-15T04:51:36.601Z,96928.59
2023-04-15T04:54:05.772Z,96935.28
2023-04-15T04:56:35.695Z,96929.63
2023-04-15T04:59:04.747Z,96938.31
2023-04-15T05:01:35.323Z,96931.53
2023-04-15T05:04:05.289Z,96933.84
2023-04-15T05:06:36.631Z,96932.53
2023-04-15T05:09:05.962Z,96932.50
2023-04-15T05:11:35.068Z,96937.19
2023-04-15T05:14:04.070Z,96936.69
2023-04-15T05:16:34.580Z,96935.81
2023-04-15T05:19:03.847Z,96944.94
2023-04-15T05:21:33.018Z,96949.69
2023-04-15T05:24:02.136Z,96950.41
2023-04-15T05:26:31.592Z,96948.34
2023-04-15T05:29:01.083Z,96959.81
2023-04-15T05:31:30.435Z,96956.84
2023-04-15T05:34:00.877Z,96966.44
2023-04-15T05:36:29.951Z,96957.53
2023-04-15T05:38:59.098Z,96970.34
2023-04-15T05:41:28.604Z,96968.00
2023-04-15T05:43:57.581Z,96978.34
2023-04-15T05:46:26.705Z,96979.97
2023-04-15T05:48:56.687Z,96979.56
2023-04-15T05:51:27.315Z,96979.19
2023-04-15T05:53:56.362Z,96979.19
2023-04-15T05:56:27.051Z,96981.97
2023-04-15T05:58:56.550Z,96983.94
2023-04-15T06:01:26.186Z,96983.44
2023-04-15T06:03:55.562Z,96991.31
2023-04-15T06:06:28.665Z,96990.84
2023-04-15T06:08:58.043Z,96985.63
2023-04-15T06:11:27.440Z,96997.91
2023-04-15T06:13:56.622Z,97002.66
2023-04-15T06:16:25.703Z,97000.22
2023-04-15T06:18:54.850Z,97002.66
2023-04-15T06:21:23.960Z,97011.47
2023-04-15T06:23:54.702Z,97014.56
2023-04-15T06:26:23.851Z,97012.84
2023-04-15T06:28:52.922Z,97019.84
2023-04-15T06:31:22.641Z,97017.19
2023-04-15T06:33:52.730Z,97020.25
2023-04-15T06:36:21.937Z,97026.41
2023-04-15T06:38:51.166Z,97031.88
2023-04-15T06:41:21.730Z,97034.19
2023-04-15T06:43:50.990Z,97038.75
2023-04-15T06:46:20.239Z,97038.63
2023-04-15T06:48:49.362Z,97044.88
2023-04-15T06:51:18.538Z,97045.44
2023-04-15T06:53:47.593Z,97046.94
2023-04-15T06:56:16.650Z,97057.50
2023-04-15T06:58:47.283Z,97059.00
2023-04-15T07:01:16.363Z,97053.91
2023-04-15T07:03:45.385Z,97056.00
2023-04-15T07:06:14.435Z,97062.47
2023-04-15T07:08:43.747Z,97068.06
2023-04-15T07:11:13.238Z,97075.25
2023-04-15T07:13:42.394Z,97068.75
2023-04-15T07:16:12.896Z,97084.00
2023-04-15T07:18:42.359Z,97082.31
2023-04-15T07:21:11.450Z,97085.28
2023-04-15T07:23:42.273Z,97082.41
2023-04-15T07:26:12.327Z,97086.69
2023-04-15T07:28:41.683Z,97086.28
2023-04-15T07:31:12.375Z,97088.56
2023-04-15T07:33:41.867Z,97090.03
2023-04-15T07:36:11.685Z,97096.78
2023-04-15T07:38:41.364Z,97096.34
2023-04-15T07:41:10.668Z,97101.06
2023-04-15T07:43:39.741Z,97098.19
2023-04-15T07:46:08.826Z,97095.31
2023-04-15T07:48:39.286Z,97097.63
2023-04-15T07:51:08.682Z,97098.28
2023-04-15T07:53:38.178Z,97104.50
2023-04-15T07:56:08.007Z,97097.88
2023-04-15T07:58:37.292Z,97105.69
2023-04-15T08:01:06.913Z,97110.34
2023-04-15T08:03:36.573Z,97120.56
2023-04-15T08:06:07.996Z,97116.88
2023-04-15T08:08:37.572Z,97120.41
2023-04-15T08:11:06.858Z,97124.06
2023-04-15T08:13:36.154Z,97121.25
2023-04-15T08:16:22.947Z,97127.00
2023-04-15T08:18:54.128Z,97129.47
2023-04-15T08:21:25.097Z,97128.81
2023-04-15T08:23:55.566Z,97139.88
2023-04-15T08:26:26.317Z,97136.22
2023-04-15T08:28:59.018Z,97138.22
2023-04-15T08:31:30.940Z,97139.75
2023-04-15T08:34:00.352Z,97148.41
2023-04-15T08:36:30.809Z,97141.53
2023-04-15T08:39:01.474Z,97143.88
2023-04-15T08:41:40.998Z,97146.19
2023-04-15T08:44:11.010Z,97142.38
2023-04-15T08:46:40.816Z,97146.41
2023-04-15T08:49:13.559Z,97151.16
2023-04-15T08:51:46.575Z,97145.94
2023-04-15T08:54:15.813Z,97157.75
2023-04-15T08:56:44.886Z,97158.66
2023-04-15T08:59:15.025Z,97164.66
2023-04-15T09:01:44.725Z,97156.97
2023-04-15T09:04:13.883Z,97166.13
2023-04-15T09:06:44.458Z,97166.53
2023-04-15T09:09:14.965Z,97164.84
2023-04-15T09:11:44.196Z,97174.31
2023-04-15T09:14:13.601Z,97168.69
2023-04-15T09:16:58.880Z,97177.47
2023-04-15T09:19:28.437Z,97173.41
2023-04-15T09:22:01.329Z,97172.16
2023-04-15T09:24:39.486Z,97179.13
2023-04-15T09:27:08.961Z,97175.88
2023-04-15T09:29:38.204Z,97173.50
2023-04-15T09:32:15.111Z,97170.03
2023-04-15T09:34:44.973Z,97168.22
2023-04-15T09:37:31.715Z,97171.91
2023-04-15T09:40:01.644Z,97171.91
2023-04-15T09:42:30.883Z,97173.66
2023-04-15T09:45:10.609Z,97169.91
2023-04-15T09:47:39.723Z,97175.31
2023-04-15T09:50:09.672Z,97176.06
2023-04-15T09:52:44.239Z,97189.78
2023-04-15T09:55:15.562Z,97182.22
2023-04-15T09:57:47.313Z,97180.53
2023-04-15T10:00:17.251Z,97185.38
2023-04-15T10:02:49.916Z,97191.00
2023-04-15T10:05:21.200Z,97186.56
2023-04-15T10:07:51.700Z,97191.28
2023-04-15T10:10:21.501Z,97199.75
2023-04-15T10:12:53.046Z,97204.81
2023-04-15T10:15:23.521Z,97196.53
2023-04-15T10:17:54.669Z,97194.69
2023-04-15T10:20:24.869Z,97203.41
2023-04-15T10:22:55.566Z,97199.94
2023-04-15T10:25:27.245Z,97205.63
2023-04-15T10:27:57.179Z,97206.22
2023-04-15T10:30:26.589Z,97210.03
2023-04-15T10:32:57.146Z,97216.31
2023-04-15T10:35:26.596Z,97217.91
2023-04-15T10:37:57.438Z,97210.84
2023-04-15T10:40:32.651Z,97212.88
2023-04-15T10:43:03.554Z,97208.19
2023-04-15T10:45:35.562Z,97207.94
2023-04-15T10:48:08.849Z,97207.53
2023-04-15T10:50:39.527Z,97204.28
2023-04-15T10:53:12.257Z,97208.84
2023-04-15T10:55:41.511Z,97208.59
2023-04-15T10:58:11.525Z,97211.22
2023-04-15T11:00:40.564Z,97215.56
2023-04-15T11:03:11.025Z,97212.16
2023-04-15T11:05:53.988Z,97213.59
2023-04-15T11:09:03.400Z,97208.34
2023-04-15T11:12:08.374Z,97210.50
2023-04-15T11:14:43.318Z,97219.75
2023-04-15T11:17:12.799Z,97212.09
2023-04-15T11:19:42.058Z,97215.41
2023-04-15T11:22:11.639Z,97219.09
2023-04-15T11:24:50.656Z,97218.38
2023-04-15T11:27:23.546Z,97224.28
2023-04-15T11:29:55.098Z,97220.94
2023-04-15T11:32:24.187Z,97216.34
2023-04-15T11:34:54.312Z,97217.94
2023-04-15T11:37:30.745Z,97229.31
2023-04-15T11:40:03.559Z,97226.25
2023-04-15T11:42:46.497Z,97230.69
2023-04-15T11:45:18.534Z,97232.75
2023-04-15T11:47:47.542Z,97231.84
2023-04-15T11:50:18.634Z,97223.56
2023-04-15T11:52:57.925Z,97231.84
2023-04-15T11:55:30.497Z,97231.38
2023-04-15T11:58:14.444Z,97227.69
2023-04-15T12:00:49.868Z,97235.50
2023-04-15T12:03:22.921Z,97236.88
2023-04-15T12:06:10.571Z,97234.66
2023-04-15T12:09:01.318Z,97231.53
2023-04-15T12:11:44.571Z,97230.41
2023-04-15T12:14:22.369Z,97226.47
2023-04-15T12:16:55.100Z,97228.19
2023-04-15T12:19:29.521Z,97224.81
2023-04-15T12:22:04.251Z,97223.47
2023-04-15T12:24:34.233Z,97223.53
2023-04-15T12:27:06.729Z,97239.28
2023-04-15T12:29:38.680Z,97237.16
2023-04-15T12:32:10.466Z,97231.84
2023-04-15T12:34:41.191Z,97233.75
2023-04-15T12:37:13.241Z,97234.38
2023-04-15T12:39:44.870Z,97243.13
2023-04-15T12:42:19.721Z,97243.78
2023-04-15T12:44:48.784Z,97239.06
2023-04-15T12:47:17.987Z,97244.56
2023-04-15T12:49:47.223Z,97249.09
2023-04-15T12:52:16.639Z,97247.81
2023-04-15T12:54:45.830Z,97250.50
2023-04-15T12:57:18.772Z,97246.22
2023-04-15T12:59:47.829Z,97252.19
2023-04-15T13:02:16.878Z,97255.22
2023-04-15T13:04:46.073Z,97251.31
2023-04-15T13:07:15.727Z,97255.31
2023-04-15T13:09:44.893Z,97265.06
2023-04-15T13:12:16.326Z,97266.53
2023-04-15T13:14:45.736Z,97259.53
2023-04-15T13:17:14.795Z,97264.00
2023-04-15T13:19:43.777Z,97263.00
2023-04-15T13:22:12.851Z,97261.41
2023-04-15T13:24:41.953Z,97264.22
2023-04-15T13:27:11.204Z,97268.69
2023-04-15T13:29:41.623Z,97270.16
2023-04-15T13:32:10.737Z,97261.19
2023-04-15T13:34:39.830Z,97266.94
2023-04-15T13:37:09.078Z,97279.53
2023-04-15T13:39:38.177Z,97269.50
2023-04-15T13:42:07.262Z,97268.88
2023-04-15T13:44:36.354Z,97263.06
2023-04-15T13:47:06.817Z,97263.44
2023-04-15T13:49:36.178Z,97268.28
2023-04-15T13:52:05.449Z,97275.59
2023-04-15T13:54:37.766Z,97276.84
2023-04-15T13:57:07.576Z,97284.28
2023-04-15T13:59:36.624Z,97289.50
2023-04-15T14:02:07.153Z,97288.81
2023-04-15T14:04:36.337Z,97295.47
2023-04-15T14:07:05.835Z,97303.13
2023-04-15T14:09:35.400Z,97296.97
2023-04-15T14:12:05.705Z,97306.84
2023-04-15T14:14:34.884Z,97299.75
2023-04-15T14:17:04.612Z,97299.66
2023-04-15T14:19:36.215Z,97305.63
2023-04-15T14:22:05.265Z,97303.50
2023-04-15T14:24:34.262Z,97309.91
2023-04-15T14:27:03.437Z,97307.72
2023-04-15T14:29:32.541Z,97309.66
2023-04-15T14:32:04.553Z,97306.34
2023-04-15T14:34:43.022Z,97314.84
2023-04-15T14:37:12.144Z,97317.78
2023-04-15T14:39:41.167Z,97319.59
2023-04-15T14:42:10.207Z,97324.97
2023-04-15T14:44:39.378Z,97325.63
2023-04-15T14:47:08.584Z,97327.19
2023-04-15T14:49:37.801Z,97343.13
2023-04-15T14:52:08.265Z,97342.91
2023-04-15T14:54:37.472Z,97343.72
2023-04-15T14:57:06.749Z,97351.72
2023-04-15T14:59:35.830Z,97348.75
2023-04-15T15:02:05.298Z,97357.19
2023-04-15T15:04:36.178Z,97358.56
2023-04-15T15:07:05.437Z,97360.41
2023-04-15T15:09:35.992Z,97359.22
2023-04-15T15:12:05.823Z,97360.69
2023-04-15T15:14:34.999Z,97362.53
2023-04-15T15:17:04.328Z,97368.31
2023-04-15T15:19:33.425Z,97367.75
2023-04-15T15:22:02.464Z,97376.38
2023-04-15T15:24:31.491Z,97367.00
2023-04-15T15:27:01.951Z,97380.81
2023-04-15T15:29:31.052Z,97390.16
2023-04-15T15:32:00.341Z,97380.50
2023-04-15T15:34:29.440Z,97391.38
2023-04-15T15:36:58.662Z,97391.38
2023-04-15T15:39:27.922Z,97393.31
2023-04-15T15:41:56.923Z,97398.78
2023-04-15T15:44:27.464Z,97396.31
2023-04-15T15:46:56.553Z,97399.03
2023-04-15T15:49:28.384Z,97401.75
2023-04-15T15:51:57.621Z,97404.91
2023-04-15T15:54:26.936Z,97401.56
2023-04-15T15:56:57.591Z,97407.38
2023-04-15T15:59:28.139Z,97407.53
2023-04-15T16:01:57.362Z,97409.03
2023-04-15T16:04:27.064Z,97414.13
2023-04-15T16:06:59.048Z,97409.13
2023-04-15T16:09:28.106Z,97422.81
2023-04-15T16:11:57.986Z,97424.03
2023-04-15T16:14:28.566Z,97414.63
2023-04-15T16:16:57.967Z,97418.75
2023-04-15T16:19:27.203Z,97431.63
2023-04-15T16:21:56.686Z,97434.91
2023-04-15T16:24:25.905Z,97430.16
2023-04-15T16:26:54.887Z,97435.34
2023-04-15T16:29:23.989Z,97434.91
2023-04-15T16:31:54.521Z,97436.63
2023-04-15T16:34:23.606Z,97436.94
2023-04-15T16:36:52.660Z,97432.38
2023-04-15T16:39:23.239Z,97442.72
2023-04-15T16:41:52.320Z,97448.41
2023-04-15T16:44:21.832Z,97446.91
2023-04-15T16:46:51.063Z,97463.03
2023-04-15T16:49:21.649Z,97460.81
2023-04-15T16:51:51.411Z,97464.13
2023-04-15T16:54:21.638Z,97455.84
2023-04-15T16:56:50.724Z,97469.50
2023-04-15T16:59:20.484Z,97472.78
2023-04-15T17:01:49.970Z,97476.38
2023-04-15T17:04:19.336Z,97469.28
2023-04-15T17:06:50.107Z,97476.97
2023-04-15T17:09:19.193Z,97488.19
2023-04-15T17:11:48.192Z,97485.88
2023-04-15T17:14:17.311Z,97483.00
2023-04-15T17:16:46.362Z,97483.44
2023-04-15T17:19:15.394Z,97495.81
2023-04-15T17:21:44.455Z,97493.06
2023-04-15T17:24:15.059Z,97510.16
2023-04-15T17:26:44.218Z,97509.03
2023-04-15T17:29:13.517Z,97515.50
2023-04-15T17:31:42.773Z,97507.88
2023-04-15T17:34:13.866Z,97516.72
2023-04-15T17:36:44.357Z,97518.41
2023-04-15T17:39:15.616Z,97532.00
2023-04-15T17:41:45.095Z,97533.06
2023-04-15T17:44:14.151Z,97541.00
2023-04-15T17:46:43.244Z,97546.81
2023-04-15T17:49:12.453Z,97551.34
2023-04-15T17:51:41.478Z,97554.88
2023-04-15T17:54:10.602Z,97554.13
2023-04-15T17:56:41.233Z,97564.75
2023-04-15T17:59:10.337Z,97558.03
2023-04-15T18:01:39.606Z,97573.03
2023-04-15T18:04:08.946Z,97571.97
2023-04-15T18:06:38.989Z,97576.41
2023-04-15T18:09:09.436Z,97578.03
2023-04-15T18:11:40.997Z,97579.16
2023-04-15T18:14:11.250Z,97587.56
2023-04-15T18:16:42.643Z,97594.75
2023-04-15T18:19:12.099Z,97592.31
2023-04-15T18:21:41.207Z,97597.94
2023-04-15T18:24:10.417Z,97597.09
2023-04-15T18:26:41.319Z,97593.53
2023-04-15T18:29:11.241Z,97595.72
2023-04-15T18:31:40.490Z,97591.25
2023-04-15T18:34:09.491Z,97606.47
2023-04-15T18:36:38.561Z,97606.09
2023-04-15T18:39:07.840Z,97600.94
2023-04-15T18:41:37.348Z,97614.03
2023-04-15T18:44:07.794Z,97626.91
2023-04-15T18:46:36.913Z,97627.03
2023-04-15T18:49:06.326Z,97626.09
2023-04-15T18:51:35.675Z,97635.88
2023-04-15T18:54:04.783Z,97637.66
2023-04-15T18:56:33.829Z,97645.03
2023-04-15T18:59:22.126Z,97642.00
2023-04-15T19:01:54.659Z,97636.47
2023-04-15T19:04:24.049Z,97648.34
2023-04-15T19:06:53.251Z,97657.78
2023-04-15T19:09:22.337Z,97661.00
2023-04-15T19:11:51.496Z,97667.56
2023-04-15T19:14:20.532Z,97672.41
2023-04-15T19:16:50.221Z,97681.28
2023-04-15T19:19:20.879Z,97672.25
2023-04-15T19:21:50.318Z,97672.78
2023-04-15T19:24:19.653Z,97675.09
2023-04-15T19:26:51.093Z,97675.22
2023-04-15T19:29:20.671Z,97684.59
2023-04-15T19:31:49.755Z,97694.78
2023-04-15T19:34:20.793Z,97683.91
2023-04-15T19:36:50.489Z,97686.47
2023-04-15T19:39:20.086Z,97679.81
2023-04-15T19:41:49.247Z,97683.47
2023-04-15T19:44:18.369Z,97678.34
2023-04-15T19:46:50.023Z,97681.19
2023-04-15T19:49:20.888Z,97684.41
2023-04-15T19:51:51.163Z,97692.06
2023-04-15T19:54:20.249Z,97685.31
2023-04-15T19:56:49.262Z,97692.13
2023-04-15T19:59:18.320Z,97690.16
2023-04-15T20:01:47.407Z,97699.00
2023-04-15T20:04:16.619Z,97699.81
2023-04-15T20:06:47.207Z,97703.00
2023-04-15T20:09:16.346Z,97712.59
2023-04-15T20:12:48.133Z,97706.59
2023-04-15T20:14:34.581Z,97702.22
2023-04-15T20:17:03.756Z,97706.22
2023-04-15T20:19:33.181Z,97705.50
2023-04-15T20:22:03.824Z,97709.09
2023-04-15T20:24:33.774Z,97715.91
2023-04-15T20:27:03.962Z,97717.13
2023-04-15T20:29:36.258Z,97721.09
2023-04-15T20:32:06.794Z,97718.31
2023-04-15T20:34:36.456Z,97713.53
2023-04-15T20:37:07.294Z,97725.50
2023-04-15T20:39:36.462Z,97719.91
2023-04-15T20:42:10.093Z,97726.31
2023-04-15T20:44:39.537Z,97729.53
2023-04-15T20:47:09.184Z,97735.47
2023-04-15T20:49:39.462Z,97738.28
2023-04-15T20:52:10.818Z,97744.66
2023-04-15T20:54:39.920Z,97731.09
2023-04-15T20:57:08.963Z,97743.06
2023-04-15T20:59:38.066Z,97738.31
2023-04-15T21:02:07.840Z,97743.50
2023-04-15T21:04:38.019Z,97743.91
2023-04-15T21:07:07.124Z,97747.91
2023-04-15T21:09:38.678Z,97745.53
2023-04-15T21:12:07.804Z,97755.47
2023-04-15T21:14:37.714Z,97758.25
2023-04-15T21:17:10.877Z,97766.97
2023-04-15T21:19:40.695Z,97768.19
2023-04-15T21:22:10.108Z,97767.41
2023-04-15T21:24:40.584Z,97775.38
2023-04-15T21:27:10.703Z,97775.00
2023-04-15T21:29:40.421Z,97783.72
2023-04-15T21:32:09.658Z,97785.72
2023-04-15T21:34:38.762Z,97784.13
2023-04-15T21:37:08.147Z,97778.94
2023-04-15T21:39:37.192Z,97779.75
2023-04-15T21:42:07.731Z,97780.53
2023-04-15T21:44:36.865Z,97789.72
2023-04-15T21:47:05.937Z,97790.50
2023-04-15T21:49:35.189Z,97785.31
2023-04-15T21:52:04.757Z,97796.09
2023-04-15T21:54:33.783Z,97794.91
2023-04-15T21:57:02.891Z,97806.06
2023-04-15T21:59:33.410Z,97800.47
2023-04-15T22:02:02.725Z,97802.88
2023-04-15T22:04:31.859Z,97800.09
2023-04-15T22:07:02.428Z,97803.69
2023-04-15T22:09:31.664Z,97810.84
2023-04-15T22:12:01.077Z,97814.84
2023-04-15T22:14:32.646Z,97813.28
2023-04-15T22:17:01.953Z,97813.28
2023-04-15T22:19:31.374Z,97814.06
2023-04-15T22:22:01.093Z,97818.84
2023-04-15T22:24:39.851Z,97817.25
2023-04-15T22:27:09.819Z,97821.22
2023-04-15T22:29:40.326Z,97827.63
2023-04-15T22:32:09.545Z,97832.38
2023-04-15T22:34:38.652Z,97841.16
2023-04-15T22:37:07.779Z,97841.97
2023-04-15T22:39:36.890Z,97839.97
2023-04-15T22:42:05.939Z,97835.56
2023-04-15T22:44:35.087Z,97836.38
2023-04-15T22:47:05.896Z,97849.94
2023-04-15T22:49:36.290Z,97839.19
2023-04-15T22:52:06.140Z,97852.31
2023-04-15T22:54:36.762Z,97853.13
2023-04-15T22:57:05.880Z,97851.53
2023-04-15T22:59:34.895Z,97851.53
2023-04-15T23:02:05.420Z,97857.91
2023-04-15T23:04:35.184Z,97853.91
2023-04-15T23:07:04.382Z,97865.06
2023-04-15T23:09:33.460Z,97864.69
2023-04-15T23:12:04.628Z,97864.66
2023-04-15T23:14:33.665Z,97868.25
2023-04-15T23:17:02.675Z,97872.63
2023-04-15T23:19:33.166Z,97873.84
2023-04-15T23:22:02.350Z,97877.81
2023-04-15T23:24:31.431Z,97873.00
2023-04-15T23:27:00.484Z,97871.84
2023-04-15T23:29:29.566Z,97871.44
2023-04-15T23:31:58.686Z,97877.03
2023-04-15T23:34:27.805Z,97874.63
2023-04-15T23:36:58.293Z,97884.16
2023-04-15T23:39:27.398Z,97880.97
2023-04-15T23:41:57.087Z,97894.09
2023-04-15T23:44:26.220Z,97888.09
2023-04-15T23:46:55.318Z,97880.16
2023-04-15T23:49:24.393Z,97887.31
2023-04-15T23:51:53.413Z,97895.63
2023-04-15T23:54:23.833Z,97890.41
2023-04-15T23:56:52.872Z,97893.59
2023-04-15T23:59:21.907Z,97887.22
